createdAt,value
2018-09-30T00:02:15.033Z,4.65
2018-09-30T00:04:42.629Z,4.75
2018-09-30T00:07:10.151Z,4.72
2018-09-30T00:09:37.710Z,4.80
2018-09-30T00:12:05.231Z,5.53
2018-09-30T00:14:32.752Z,5.35
2018-09-30T00:17:00.321Z,5.35
2018-09-30T00:19:27.871Z,4.75
2018-09-30T00:21:55.476Z,6.12
2018-09-30T00:24:28.680Z,5.47
2018-09-30T00:26:56.437Z,5.15
2018-09-30T00:29:23.948Z,4.92
2018-09-30T00:31:51.522Z,4.95
2018-09-30T00:34:25.047Z,5.17
2018-09-30T00:36:53.845Z,5.87
2018-09-30T00:39:21.422Z,5.90
2018-09-30T00:41:49.158Z,4.72
2018-09-30T00:44:16.722Z,5.42
2018-09-30T00:46:44.306Z,5.60
2018-09-30T00:49:11.918Z,5.60
2018-09-30T00:51:39.511Z,5.60
2018-09-30T00:54:07.105Z,5.42
2018-09-30T00:56:34.629Z,6.30
2018-09-30T00:59:02.237Z,6.10
2018-09-30T01:01:29.731Z,5.40
2018-09-30T01:03:57.454Z,5.85
2018-09-30T01:06:24.941Z,6.15
2018-09-30T01:08:52.493Z,6.05
2018-09-30T01:11:20.210Z,5.20
2018-09-30T01:13:47.830Z,5.78
2018-09-30T01:16:15.318Z,5.50
2018-09-30T01:18:42.910Z,5.08
2018-09-30T01:21:10.483Z,5.10
2018-09-30T01:23:38.022Z,5.40
2018-09-30T01:26:05.689Z,4.95
2018-09-30T01:28:33.513Z,5.40
2018-09-30T01:31:01.307Z,5.25
2018-09-30T01:33:29.025Z,5.42
2018-09-30T01:35:56.555Z,5.50
2018-09-30T01:38:24.020Z,5.03
2018-09-30T01:40:51.598Z,5.72
2018-09-30T01:43:19.177Z,5.35
2018-09-30T01:45:46.729Z,6.08
2018-09-30T01:48:14.213Z,5.42
2018-09-30T01:50:41.782Z,4.92
2018-09-30T01:53:09.284Z,5.87
2018-09-30T01:55:36.845Z,5.50
2018-09-30T01:58:04.543Z,5.00
2018-09-30T02:00:32.045Z,6.05
2018-09-30T02:02:59.605Z,5.22
2018-09-30T02:05:27.081Z,5.20
2018-09-30T02:07:54.638Z,5.25
2018-09-30T02:10:22.136Z,5.60
2018-09-30T02:12:49.694Z,5.05
2018-09-30T02:15:17.466Z,5.00
2018-09-30T02:17:44.993Z,4.70
2018-09-30T02:20:12.445Z,5.53
2018-09-30T02:22:40.067Z,6.00
2018-09-30T02:25:07.600Z,5.85
2018-09-30T02:27:35.193Z,5.35
2018-09-30T02:30:02.861Z,5.70
2018-09-30T02:32:30.409Z,4.92
2018-09-30T02:34:57.914Z,5.12
2018-09-30T02:37:25.469Z,5.87
2018-09-30T02:39:52.974Z,5.35
2018-09-30T02:42:20.618Z,6.08
2018-09-30T02:44:48.123Z,5.50
2018-09-30T02:47:15.615Z,6.35
2018-09-30T02:49:43.213Z,6.28
2018-09-30T02:52:10.696Z,5.87
2018-09-30T02:54:38.246Z,6.25
2018-09-30T02:57:05.790Z,5.45
2018-09-30T02:59:33.358Z,5.75
2018-09-30T03:02:00.889Z,5.28
2018-09-30T03:04:28.458Z,5.45
2018-09-30T03:07:01.674Z,5.40
2018-09-30T03:09:29.700Z,5.92
2018-09-30T03:11:57.210Z,5.22
2018-09-30T03:14:24.663Z,5.92
2018-09-30T03:16:52.217Z,5.80
2018-09-30T03:19:19.731Z,5.10
2018-09-30T03:21:47.298Z,5.40
2018-09-30T03:24:14.755Z,5.92
2018-09-30T03:26:42.364Z,5.45
2018-09-30T03:29:10.202Z,6.12
2018-09-30T03:31:37.761Z,5.90
2018-09-30T03:34:05.277Z,6.28
2018-09-30T03:36:32.882Z,5.85
2018-09-30T03:39:00.317Z,6.30
2018-09-30T03:41:27.757Z,6.42
2018-09-30T03:43:55.382Z,5.87
2018-09-30T03:46:22.870Z,6.08
2018-09-30T03:48:50.417Z,6.37
2018-09-30T03:51:17.909Z,6.05
2018-09-30T03:53:45.494Z,6.00
2018-09-30T03:56:12.962Z,6.55
2018-09-30T03:58:40.507Z,5.65
2018-09-30T04:01:08.058Z,7.20
2018-09-30T04:03:35.582Z,6.45
2018-09-30T04:06:03.065Z,6.30
2018-09-30T04:08:30.638Z,6.75
2018-09-30T04:10:58.102Z,6.55
2018-09-30T04:13:25.775Z,6.33
2018-09-30T04:15:53.316Z,5.87
2018-09-30T04:18:20.867Z,6.53
2018-09-30T04:20:48.346Z,5.50
2018-09-30T04:23:15.962Z,5.80
2018-09-30T04:25:43.450Z,5.83
2018-09-30T04:28:10.931Z,5.37
2018-09-30T04:30:38.558Z,6.10
2018-09-30T04:33:06.145Z,6.08
2018-09-30T04:35:33.718Z,5.85
2018-09-30T04:38:01.694Z,6.53
2018-09-30T04:40:29.370Z,7.30
2018-09-30T04:42:57.079Z,6.35
2018-09-30T04:45:24.639Z,6.08
2018-09-30T04:47:52.098Z,5.95
2018-09-30T04:50:19.656Z,5.85
2018-09-30T04:52:47.150Z,6.33
2018-09-30T04:55:14.747Z,6.08
2018-09-30T04:57:42.234Z,5.75
2018-09-30T05:00:09.754Z,6.10
2018-09-30T05:02:37.284Z,5.60
2018-09-30T05:05:04.789Z,5.80
2018-09-30T05:07:32.333Z,6.08
2018-09-30T05:09:59.826Z,7.10
2018-09-30T05:12:27.416Z,6.45
2018-09-30T05:14:54.904Z,7.12
2018-09-30T05:17:22.490Z,6.78
2018-09-30T05:19:50.015Z,6.85
2018-09-30T05:22:17.575Z,6.25
2018-09-30T05:24:45.037Z,6.42
2018-09-30T05:27:12.612Z,7.25
2018-09-30T05:29:40.106Z,6.75
2018-09-30T05:32:07.630Z,7.08
2018-09-30T05:34:35.203Z,7.47
2018-09-30T05:37:02.872Z,6.35
2018-09-30T05:39:30.382Z,7.37
2018-09-30T05:41:57.965Z,6.78
2018-09-30T05:44:25.535Z,7.37
2018-09-30T05:46:53.040Z,6.30
2018-09-30T05:49:20.594Z,7.42
2018-09-30T05:51:48.098Z,6.85
2018-09-30T05:54:15.673Z,6.50
2018-09-30T05:56:43.238Z,6.75
2018-09-30T05:59:10.777Z,6.80
2018-09-30T06:01:38.381Z,7.83
2018-09-30T06:04:06.169Z,7.70
2018-09-30T06:06:33.699Z,6.92
2018-09-30T06:09:01.668Z,7.08
2018-09-30T06:11:29.170Z,8.05
2018-09-30T06:13:56.741Z,7.90
2018-09-30T06:16:24.317Z,7.08
2018-09-30T06:18:51.913Z,9.18
2018-09-30T06:21:19.554Z,7.92
2018-09-30T06:23:47.167Z,7.95
2018-09-30T06:26:14.674Z,7.67
2018-09-30T06:28:42.216Z,8.15
2018-09-30T06:31:09.789Z,9.08
2018-09-30T06:33:37.280Z,7.75
2018-09-30T06:36:04.854Z,7.65
2018-09-30T06:38:32.379Z,8.03
2018-09-30T06:40:59.902Z,7.33
2018-09-30T06:43:27.576Z,8.33
2018-09-30T06:45:55.079Z,7.78
2018-09-30T06:48:22.675Z,7.60
2018-09-30T06:50:50.365Z,7.55
2018-09-30T06:53:17.844Z,10.50
2018-09-30T06:55:45.393Z,14.40
2018-09-30T06:58:13.000Z,8.85
2018-09-30T07:00:40.525Z,7.25
2018-09-30T07:03:08.138Z,7.70
2018-09-30T07:05:35.675Z,7.08
2018-09-30T07:08:03.286Z,7.70
2018-09-30T07:10:30.785Z,7.17
2018-09-30T07:12:58.387Z,7.58
2018-09-30T07:15:25.997Z,6.83
2018-09-30T07:17:53.634Z,7.08
2018-09-30T07:20:21.174Z,7.30
2018-09-30T07:22:48.778Z,6.70
2018-09-30T07:25:16.334Z,6.60
2018-09-30T07:27:43.831Z,7.45
2018-09-30T07:30:11.412Z,6.78
2018-09-30T07:32:38.958Z,7.70
2018-09-30T07:35:06.585Z,7.37
2018-09-30T07:37:34.183Z,6.25
2018-09-30T07:40:02.209Z,7.08
2018-09-30T07:42:29.896Z,7.65
2018-09-30T07:44:57.519Z,6.97
2018-09-30T07:47:25.180Z,6.87
2018-09-30T07:49:52.690Z,6.35
2018-09-30T07:52:20.246Z,6.50
2018-09-30T07:54:47.776Z,6.85
2018-09-30T07:57:15.341Z,6.95
2018-09-30T07:59:42.931Z,7.12
2018-09-30T08:02:10.534Z,7.37
2018-09-30T08:04:38.060Z,5.62
2018-09-30T08:07:05.733Z,6.72
2018-09-30T08:09:33.325Z,7.12
2018-09-30T08:12:00.874Z,6.78
2018-09-30T08:14:28.530Z,7.12
2018-09-30T08:16:56.064Z,7.42
2018-09-30T08:19:23.849Z,7.17
2018-09-30T08:21:51.381Z,7.45
2018-09-30T08:24:19.054Z,6.95
2018-09-30T08:26:46.543Z,7.08
2018-09-30T08:29:14.130Z,7.33
2018-09-30T08:31:41.663Z,7.40
2018-09-30T08:34:09.285Z,6.30
2018-09-30T08:36:36.880Z,7.10
2018-09-30T08:39:06.594Z,6.30
2018-09-30T08:41:34.182Z,7.30
2018-09-30T08:44:02.265Z,6.55
2018-09-30T08:46:29.836Z,6.80
2018-09-30T08:48:57.345Z,6.97
2018-09-30T08:51:24.974Z,6.50
2018-09-30T08:53:52.538Z,5.72
2018-09-30T08:56:20.095Z,8.00
2018-09-30T08:58:47.603Z,7.05
2018-09-30T09:01:15.259Z,6.75
2018-09-30T09:03:42.778Z,7.35
2018-09-30T09:06:10.422Z,7.28
2018-09-30T09:08:38.012Z,7.15
2018-09-30T09:11:05.727Z,6.83
2018-09-30T09:13:33.301Z,8.28
2018-09-30T09:16:00.935Z,7.60
2018-09-30T09:18:28.494Z,7.55
2018-09-30T09:20:56.031Z,7.25
2018-09-30T09:23:23.609Z,7.25
2018-09-30T09:25:51.155Z,7.12
2018-09-30T09:28:18.786Z,6.40
2018-09-30T09:30:46.318Z,7.22
2018-09-30T09:33:13.930Z,7.50
2018-09-30T09:35:41.449Z,6.33
2018-09-30T09:38:09.051Z,7.83
2018-09-30T09:40:36.592Z,6.40
2018-09-30T09:43:04.483Z,7.10
2018-09-30T09:45:32.041Z,6.40
2018-09-30T09:47:59.661Z,6.20
2018-09-30T09:50:27.177Z,8.05
2018-09-30T09:52:54.799Z,6.58
2018-09-30T09:55:22.404Z,6.87
2018-09-30T09:57:49.943Z,6.25
2018-09-30T10:00:23.175Z,7.35
2018-09-30T10:02:50.838Z,6.70
2018-09-30T10:05:18.415Z,6.70
2018-09-30T10:07:46.057Z,6.72
2018-09-30T10:10:13.749Z,7.40
2018-09-30T10:12:41.270Z,7.03
2018-09-30T10:15:08.935Z,7.22
2018-09-30T10:17:36.466Z,6.75
2018-09-30T10:20:04.267Z,7.65
2018-09-30T10:22:31.766Z,6.20
2018-09-30T10:24:59.395Z,6.62
2018-09-30T10:27:26.947Z,7.10
2018-09-30T10:29:54.478Z,5.92
2018-09-30T10:32:22.096Z,6.80
2018-09-30T10:34:49.672Z,7.28
2018-09-30T10:37:17.261Z,6.80
2018-09-30T10:39:44.783Z,7.00
2018-09-30T10:42:12.526Z,6.90
2018-09-30T10:44:40.049Z,8.15
2018-09-30T10:47:07.704Z,7.78
2018-09-30T10:49:35.285Z,6.90
2018-09-30T10:52:02.895Z,7.30
2018-09-30T10:54:30.450Z,8.25
2018-09-30T10:56:58.092Z,8.00
2018-09-30T10:59:25.612Z,9.65
2018-09-30T11:01:53.149Z,9.93
2018-09-30T11:04:20.754Z,10.50
2018-09-30T11:06:48.309Z,9.73
2018-09-30T11:09:15.940Z,8.28
2018-09-30T11:11:43.482Z,8.55
2018-09-30T11:14:11.070Z,7.50
2018-09-30T11:16:38.618Z,8.48
2018-09-30T11:19:06.249Z,7.58
2018-09-30T11:21:33.765Z,7.72
2018-09-30T11:24:01.376Z,8.58
2018-09-30T11:26:28.960Z,7.95
2018-09-30T11:28:56.485Z,6.92
2018-09-30T11:31:24.140Z,8.18
2018-09-30T11:33:51.668Z,7.80
2018-09-30T11:36:19.446Z,8.68
2018-09-30T11:38:46.988Z,7.20
2018-09-30T11:41:14.762Z,9.55
2018-09-30T11:43:42.387Z,7.37
2018-09-30T11:46:10.016Z,7.92
2018-09-30T11:48:37.685Z,7.20
2018-09-30T11:51:05.300Z,8.30
2018-09-30T11:53:32.913Z,9.70
2018-09-30T11:56:00.425Z,6.90
2018-09-30T11:58:28.035Z,8.00
2018-09-30T12:00:55.577Z,8.65
2018-09-30T12:03:23.187Z,7.78
2018-09-30T12:05:50.736Z,8.15
2018-09-30T12:08:18.323Z,8.03
2018-09-30T12:10:45.869Z,8.25
2018-09-30T12:13:13.577Z,8.20
2018-09-30T12:15:41.097Z,8.00
2018-09-30T12:18:08.617Z,7.75
2018-09-30T12:20:36.599Z,6.70
2018-09-30T12:23:04.641Z,7.60
2018-09-30T12:25:32.333Z,7.20
2018-09-30T12:27:59.947Z,7.75
2018-09-30T12:30:27.458Z,7.75
2018-09-30T12:32:55.152Z,8.35
2018-09-30T12:35:22.685Z,8.60
2018-09-30T12:37:56.342Z,8.18
2018-09-30T12:40:23.950Z,8.48
2018-09-30T12:42:51.611Z,7.42
2018-09-30T12:45:19.350Z,8.38
2018-09-30T12:47:47.243Z,9.20
2018-09-30T12:50:14.924Z,8.78
2018-09-30T12:52:42.571Z,7.45
2018-09-30T12:55:10.189Z,9.25
2018-09-30T12:57:38.922Z,9.60
2018-09-30T13:00:14.846Z,7.10
2018-09-30T13:02:44.159Z,7.80
2018-09-30T13:05:13.007Z,8.00
2018-09-30T13:07:40.841Z,7.70
2018-09-30T13:10:08.936Z,7.80
2018-09-30T13:12:36.799Z,8.65
2018-09-30T13:15:07.247Z,7.63
2018-09-30T13:17:34.999Z,7.07
2018-09-30T13:20:02.607Z,8.28
2018-09-30T13:22:31.217Z,8.80
2018-09-30T13:24:58.841Z,9.08
2018-09-30T13:27:26.398Z,8.50
2018-09-30T13:29:53.989Z,8.60
2018-09-30T13:32:21.537Z,7.70
2018-09-30T13:34:49.158Z,8.33
2018-09-30T13:37:16.858Z,8.60
2018-09-30T13:39:44.489Z,8.10
2018-09-30T13:42:12.145Z,8.70
2018-09-30T13:44:39.741Z,8.57
2018-09-30T13:47:07.341Z,7.80
2018-09-30T13:49:34.937Z,7.20
2018-09-30T13:52:02.667Z,8.43
2018-09-30T13:54:30.360Z,8.33
2018-09-30T13:56:57.941Z,7.40
2018-09-30T13:59:25.581Z,7.83
2018-09-30T14:01:53.113Z,6.80
2018-09-30T14:04:20.759Z,8.85
2018-09-30T14:06:48.388Z,8.10
2018-09-30T14:09:15.962Z,6.83
2018-09-30T14:11:43.494Z,7.73
2018-09-30T14:14:11.194Z,8.37
2018-09-30T14:16:38.778Z,8.07
2018-09-30T14:19:06.546Z,8.35
2018-09-30T14:21:34.066Z,8.73
2018-09-30T14:24:01.620Z,8.00
2018-09-30T14:26:29.245Z,9.07
2018-09-30T14:28:56.785Z,8.90
2018-09-30T14:31:24.402Z,9.07
2018-09-30T14:33:51.821Z,8.10
2018-09-30T14:36:19.506Z,7.93
2018-09-30T14:38:47.048Z,7.47
2018-09-30T14:41:14.610Z,8.00
2018-09-30T14:43:42.457Z,8.10
2018-09-30T14:46:10.131Z,9.03
2018-09-30T14:48:37.898Z,8.27
2018-09-30T14:51:05.560Z,7.65
2018-09-30T14:53:33.189Z,8.30
2018-09-30T14:56:00.870Z,7.45
2018-09-30T14:58:28.549Z,8.00
2018-09-30T15:00:56.063Z,8.40
2018-09-30T15:03:23.665Z,7.40
2018-09-30T15:05:51.196Z,7.60
2018-09-30T15:08:18.929Z,7.83
2018-09-30T15:10:46.517Z,6.78
2018-09-30T15:13:14.030Z,7.20
2018-09-30T15:15:41.673Z,13.28
2018-09-30T15:18:09.265Z,8.75
2018-09-30T15:20:37.225Z,7.40
2018-09-30T15:23:04.744Z,7.20
2018-09-30T15:25:32.385Z,6.80
2018-09-30T15:27:59.962Z,7.55
2018-09-30T15:30:27.630Z,7.25
2018-09-30T15:32:55.174Z,7.00
2018-09-30T15:35:22.817Z,6.75
2018-09-30T15:37:50.675Z,7.33
2018-09-30T15:40:18.267Z,6.70
2018-09-30T15:42:45.881Z,7.42
2018-09-30T15:45:13.430Z,6.25
2018-09-30T15:47:41.018Z,9.88
2018-09-30T15:50:08.563Z,11.10
2018-09-30T15:52:36.382Z,8.15
2018-09-30T15:55:04.047Z,9.03
2018-09-30T15:57:31.694Z,11.08
2018-09-30T15:59:59.219Z,8.08
2018-09-30T16:02:26.722Z,8.45
2018-09-30T16:04:54.352Z,6.78
2018-09-30T16:07:21.870Z,7.17
2018-09-30T16:09:49.526Z,6.30
2018-09-30T16:12:17.233Z,6.30
2018-09-30T16:14:44.905Z,6.10
2018-09-30T16:17:12.485Z,6.10
2018-09-30T16:19:40.010Z,5.35
2018-09-30T16:22:07.668Z,6.35
2018-09-30T16:24:35.311Z,6.17
2018-09-30T16:27:02.943Z,6.12
2018-09-30T16:29:30.500Z,6.50
2018-09-30T16:31:58.090Z,6.03
2018-09-30T16:34:25.635Z,6.50
2018-09-30T16:36:53.156Z,6.25
2018-09-30T16:39:20.852Z,7.53
2018-09-30T16:41:48.582Z,7.72
2018-09-30T16:44:16.207Z,7.45
2018-09-30T16:46:43.769Z,7.10
2018-09-30T16:49:11.429Z,6.97
2018-09-30T16:51:39.118Z,6.33
2018-09-30T16:54:09.643Z,6.40
2018-09-30T16:56:38.508Z,6.08
2018-09-30T16:59:06.169Z,6.60
2018-09-30T17:01:33.767Z,6.35
2018-09-30T17:04:01.631Z,5.62
2018-09-30T17:06:29.400Z,6.22
2018-09-30T17:08:57.047Z,5.20
2018-09-30T17:11:24.812Z,6.62
2018-09-30T17:13:52.431Z,5.62
2018-09-30T17:16:20.043Z,5.75
2018-09-30T17:18:47.618Z,5.42
2018-09-30T17:21:15.747Z,6.20
2018-09-30T17:23:43.323Z,6.60
2018-09-30T17:26:11.122Z,5.60
2018-09-30T17:28:38.737Z,6.50
2018-09-30T17:31:06.899Z,6.55
2018-09-30T17:33:34.615Z,6.05
2018-09-30T17:36:02.180Z,5.60
2018-09-30T17:38:29.839Z,6.30
2018-09-30T17:40:57.441Z,6.00
2018-09-30T17:43:25.159Z,6.37
2018-09-30T17:45:52.720Z,5.58
2018-09-30T17:48:20.339Z,5.85
2018-09-30T17:50:47.939Z,5.75
2018-09-30T17:53:15.569Z,6.33
2018-09-30T17:55:43.134Z,5.97
2018-09-30T17:58:10.784Z,5.50
2018-09-30T18:00:38.309Z,5.60
2018-09-30T18:03:06.000Z,6.08
2018-09-30T18:05:33.808Z,5.70
2018-09-30T18:08:01.454Z,6.33
2018-09-30T18:10:29.060Z,6.20
2018-09-30T18:12:56.593Z,5.53
2018-09-30T18:15:24.198Z,5.72
2018-09-30T18:17:51.719Z,5.28
2018-09-30T18:20:19.474Z,6.12
2018-09-30T18:22:47.321Z,5.75
2018-09-30T18:25:15.236Z,6.47
2018-09-30T18:27:42.867Z,5.60
2018-09-30T18:33:03.973Z,5.58
2018-09-30T18:35:31.527Z,4.70
2018-09-30T18:37:59.231Z,5.53
2018-09-30T18:40:27.291Z,7.00
2018-09-30T18:42:55.394Z,5.72
2018-09-30T18:45:23.230Z,5.60
2018-09-30T18:47:51.815Z,6.37
2018-09-30T18:50:19.701Z,6.22
2018-09-30T18:52:47.548Z,7.03
2018-09-30T18:55:16.647Z,7.17
2018-09-30T18:57:44.598Z,6.25
2018-09-30T19:00:12.606Z,5.95
2018-09-30T19:02:40.466Z,5.92
2018-09-30T19:05:08.376Z,6.62
2018-09-30T19:07:36.269Z,6.10
2018-09-30T19:10:04.285Z,6.05
2018-09-30T19:12:32.228Z,6.35
2018-09-30T19:15:00.195Z,6.30
2018-09-30T19:17:28.058Z,6.47
2018-09-30T19:19:55.995Z,6.55
2018-09-30T19:22:24.485Z,6.20
2018-09-30T19:24:52.177Z,6.42
2018-09-30T19:27:19.827Z,6.50
2018-09-30T19:29:47.422Z,5.85
2018-09-30T19:32:15.125Z,6.28
2018-09-30T19:34:42.714Z,5.95
2018-09-30T19:37:10.362Z,6.75
2018-09-30T19:39:37.899Z,6.35
2018-09-30T19:42:05.679Z,6.53
2018-09-30T19:44:33.219Z,6.87
2018-09-30T19:47:00.976Z,6.45
2018-09-30T19:49:28.560Z,5.87
2018-09-30T19:51:56.176Z,7.30
2018-09-30T19:54:23.672Z,8.05
2018-09-30T19:56:51.200Z,7.87
2018-09-30T19:59:18.849Z,7.60
2018-09-30T20:01:46.438Z,9.38
2018-09-30T20:04:14.058Z,9.30
2018-09-30T20:06:41.646Z,9.45
2018-09-30T20:09:09.510Z,8.30
2018-09-30T20:11:37.411Z,6.72
2018-09-30T20:14:05.041Z,6.90
2018-09-30T20:16:32.605Z,7.33
2018-09-30T20:19:00.251Z,7.12
2018-09-30T20:21:27.945Z,7.35
2018-09-30T20:23:55.553Z,7.40
2018-09-30T20:26:23.155Z,7.87
2018-09-30T20:28:51.406Z,7.65
2018-09-30T20:31:18.986Z,6.90
2018-09-30T20:33:46.550Z,6.30
2018-09-30T20:36:14.148Z,7.28
2018-09-30T20:38:41.718Z,8.35
2018-09-30T20:41:09.372Z,8.13
2018-09-30T20:43:37.076Z,7.70
2018-09-30T20:46:04.759Z,7.20
2018-09-30T20:48:32.291Z,7.60
2018-09-30T20:50:59.906Z,7.33
2018-09-30T20:53:27.451Z,6.67
2018-09-30T20:55:55.123Z,8.30
2018-09-30T20:58:22.609Z,8.08
2018-09-30T21:00:50.486Z,7.45
2018-09-30T21:03:18.051Z,6.70
2018-09-30T21:06:07.811Z,7.70
2018-09-30T21:08:35.540Z,7.50
2018-09-30T21:11:03.197Z,7.87
2018-09-30T21:13:30.809Z,8.00
2018-09-30T21:15:58.590Z,7.12
2018-09-30T21:18:26.235Z,7.65
2018-09-30T21:20:53.766Z,8.33
2018-09-30T21:23:21.357Z,8.70
2018-09-30T21:25:48.845Z,7.90
2018-09-30T21:28:16.524Z,7.75
2018-09-30T21:30:44.011Z,8.00
2018-09-30T21:33:11.619Z,7.70
2018-09-30T21:35:39.191Z,7.37
2018-09-30T21:38:06.770Z,7.90
2018-09-30T21:40:34.370Z,7.47
2018-09-30T21:43:01.959Z,7.95
2018-09-30T21:45:29.545Z,8.20
2018-09-30T21:47:57.049Z,8.30
2018-09-30T21:50:24.643Z,8.13
2018-09-30T21:52:52.233Z,8.23
2018-09-30T21:55:19.865Z,7.70
2018-09-30T21:57:47.411Z,8.30
2018-09-30T22:00:19.572Z,7.83
2018-09-30T22:02:47.099Z,8.25
2018-09-30T22:05:14.697Z,8.55
2018-09-30T22:07:42.374Z,8.90
2018-09-30T22:10:09.942Z,7.80
2018-09-30T22:12:37.557Z,8.73
2018-09-30T22:15:05.206Z,8.45
2018-09-30T22:17:32.801Z,10.08
2018-09-30T22:20:00.311Z,8.55
2018-09-30T22:22:27.863Z,7.85
2018-09-30T22:24:55.463Z,8.20
2018-09-30T22:27:23.018Z,7.80
2018-09-30T22:29:50.519Z,8.30
2018-09-30T22:32:18.054Z,8.33
2018-09-30T22:34:45.582Z,8.10
2018-09-30T22:37:13.200Z,7.97
2018-09-30T22:39:40.743Z,7.50
2018-09-30T22:42:08.477Z,8.03
2018-09-30T22:44:36.069Z,8.60
2018-09-30T22:47:03.603Z,8.98
2018-09-30T22:49:31.194Z,9.35
2018-09-30T22:51:58.718Z,9.38
2018-09-30T22:54:26.297Z,9.33
2018-09-30T22:56:53.806Z,9.00
2018-09-30T22:59:21.394Z,9.30
2018-09-30T23:01:48.951Z,8.35
2018-09-30T23:04:16.914Z,9.15
2018-09-30T23:06:44.386Z,9.70
2018-09-30T23:09:11.883Z,9.00
2018-09-30T23:11:39.443Z,10.03
2018-09-30T23:14:07.076Z,9.93
2018-09-30T23:16:34.761Z,9.78
2018-09-30T23:19:02.332Z,9.53
2018-09-30T23:21:29.972Z,9.25
2018-09-30T23:23:57.498Z,9.08
2018-09-30T23:26:25.165Z,9.10
2018-09-30T23:28:52.644Z,10.03
2018-09-30T23:31:20.203Z,9.38
2018-09-30T23:33:47.725Z,9.43
2018-09-30T23:36:15.322Z,9.88
2018-09-30T23:38:42.937Z,8.48
2018-09-30T23:41:10.470Z,8.35
2018-09-30T23:43:38.113Z,8.58
2018-09-30T23:46:05.702Z,8.90
2018-09-30T23:48:33.265Z,8.95
2018-09-30T23:51:00.846Z,8.08
2018-09-30T23:53:28.346Z,8.93
2018-09-30T23:55:55.926Z,8.30
2018-09-30T23:58:23.415Z,8.35
